Time;durP1;ratioP1;P1;durP2;ratioP2;P2;SDS_P1;SDS_P2;PMS_P1;PMS_P2;Temp;Humidity;BMP_temperature;BMP_pressure;BME280_temperature;BME280_humidity;BME280_pressure;Samples;Min_cycle;Max_cycle;Signal;HPM_P1;HPM_P2
2023/10/18 00:00:59;;;;;;;13.37;7.97;;;4.60;99.90;;;;;;4225370;27;20498;-81
2023/10/18 00:03:02;;;;;;;16.47;8.53;;;4.60;99.90;;;;;;4226761;28;20548;-82
2023/10/18 00:05:10;;;;;;;14.80;8.50;;;4.50;99.90;;;;;;4230468;28;20450;-82
2023/10/18 00:07:15;;;;;;;13.90;8.70;;;4.50;99.90;;;;;;4230683;28;20441;-81
2023/10/18 00:11:36;;;;;;;15.17;8.37;;;5.20;99.90;;;;;;4225499;28;20486;-81
2023/10/18 00:13:38;;;;;;;13.87;8.03;;;4.50;99.90;;;;;;4236402;28;20439;-81
2023/10/18 00:15:40;;;;;;;16.37;8.77;;;4.50;99.90;;;;;;4237216;27;20441;-81
2023/10/18 00:17:44;;;;;;;15.27;9.27;;;4.50;99.90;;;;;;4231427;28;20956;-80
2023/10/18 00:19:44;;;;;;;16.57;8.60;;;4.90;99.90;;;;;;4229224;28;20871;-80
2023/10/18 00:21:46;;;;;;;16.37;8.43;;;4.50;99.90;;;;;;4227691;28;20482;-82
2023/10/18 00:23:48;;;;;;;16.20;8.47;;;4.40;99.90;;;;;;4227798;28;20205;-81
2023/10/18 00:25:52;;;;;;;13.40;7.57;;;4.40;99.90;;;;;;4228584;28;20504;-82
2023/10/18 00:27:54;;;;;;;14.97;8.83;;;4.40;99.90;;;;;;4227022;28;20469;-80
2023/10/18 00:29:57;;;;;;;14.87;8.40;;;4.40;99.90;;;;;;4230161;28;21002;-81
2023/10/18 00:32:00;;;;;;;13.57;7.73;;;4.30;99.90;;;;;;4227844;28;20506;-80
2023/10/18 00:34:04;;;;;;;15.03;8.27;;;4.00;99.90;;;;;;4226152;28;20567;-80
2023/10/18 00:36:08;;;;;;;13.87;8.03;;;4.50;99.90;;;;;;4230028;28;20458;-81
2023/10/18 00:38:16;;;;;;;14.80;8.47;;;4.30;99.90;;;;;;4230006;27;20535;-82
2023/10/18 00:40:32;;;;;;;14.33;8.60;;;4.30;99.90;;;;;;4227717;28;20504;-81
2023/10/18 00:42:36;;;;;;;18.77;9.23;;;4.30;99.90;;;;;;4225455;28;20589;-81
2023/10/18 00:44:39;;;;;;;14.00;8.37;;;5.10;99.90;;;;;;4235933;27;20452;-80
2023/10/18 00:46:41;;;;;;;17.33;9.10;;;4.20;99.90;;;;;;4240521;27;20462;-80
2023/10/18 00:48:45;;;;;;;16.23;8.97;;;4.20;99.90;;;;;;4227774;27;20751;-81
2023/10/18 00:50:52;;;;;;;14.77;8.50;;;4.20;99.90;;;;;;4229814;28;20496;-82
2023/10/18 00:52:54;;;;;;;19.80;9.57;;;4.30;99.90;;;;;;4229617;28;20444;-81
2023/10/18 00:54:56;;;;;;;15.30;8.37;;;4.20;99.90;;;;;;4228204;28;20997;-80
2023/10/18 00:56:58;;;;;;;17.17;8.90;;;4.20;99.90;;;;;;4226806;28;20445;-81
2023/10/18 00:59:04;;;;;;;14.97;9.17;;;4.20;99.90;;;;;;4229041;28;20514;-81
2023/10/18 01:01:09;;;;;;;16.20;9.27;;;4.20;99.90;;;;;;4229903;27;20459;-80
2023/10/18 01:03:21;;;;;;;19.90;10.00;;;4.10;99.90;;;;;;4230327;28;21012;-82
2023/10/18 01:05:25;;;;;;;16.23;9.37;;;4.10;99.90;;;;;;4227736;28;20927;-81
2023/10/18 01:07:27;;;;;;;17.17;9.13;;;4.10;99.90;;;;;;4225908;28;20459;-81
2023/10/18 01:09:29;;;;;;;18.30;9.80;;;4.10;99.90;;;;;;4231333;28;20485;-81
2023/10/18 01:11:31;;;;;;;16.87;9.07;;;4.70;99.90;;;;;;4228422;28;21039;-81
2023/10/18 01:13:36;;;;;;;15.50;8.87;;;4.10;99.90;;;;;;4227579;28;20524;-81
2023/10/18 01:15:43;;;;;;;16.17;8.90;;;4.30;99.90;;;;;;4229237;28;20488;-80
2023/10/18 01:17:47;;;;;;;17.20;9.43;;;4.00;99.90;;;;;;4230491;28;20457;-80
2023/10/18 01:19:49;;;;;;;18.90;9.13;;;4.10;99.90;;;;;;4228073;28;20446;-79
2023/10/18 01:21:51;;;;;;;17.40;9.60;;;4.00;99.90;;;;;;4229531;28;20549;-81
2023/10/18 01:23:54;;;;;;;18.20;9.53;;;4.00;99.90;;;;;;4232968;28;20434;-79
2023/10/18 01:25:59;;;;;;;18.93;10.13;;;4.00;99.90;;;;;;4234002;28;20451;-80
2023/10/18 01:28:01;;;;;;;16.53;9.07;;;4.00;99.90;;;;;;4231389;28;20454;-80
2023/10/18 01:30:04;;;;;;;20.00;11.27;;;3.90;99.90;;;;;;4235183;28;20434;-79
2023/10/18 01:32:06;;;;;;;19.53;9.33;;;3.90;99.90;;;;;;4232544;27;20524;-80
2023/10/18 01:34:07;;;;;;;17.83;9.50;;;3.90;99.90;;;;;;4231388;28;20447;-81
2023/10/18 01:36:13;;;;;;;18.50;9.97;;;3.90;99.90;;;;;;4226393;28;20518;-80
2023/10/18 01:38:14;;;;;;;19.13;9.63;;;3.80;99.90;;;;;;4226596;28;20466;-82
2023/10/18 01:40:35;;;;;;;23.00;10.17;;;3.80;99.90;;;;;;4227730;28;20449;-81
2023/10/18 01:42:38;;;;;;;17.60;9.10;;;4.20;99.90;;;;;;4226507;28;20482;-82
2023/10/18 01:44:41;;;;;;;19.27;10.23;;;3.80;99.90;;;;;;4228488;28;20487;-81
2023/10/18 01:46:45;;;;;;;19.20;10.17;;;3.80;99.90;;;;;;4228310;28;20434;-82
2023/10/18 01:48:50;;;;;;;18.10;9.47;;;3.80;99.90;;;;;;4228638;28;20433;-80
2023/10/18 01:50:52;;;;;;;18.57;10.57;;;3.70;99.90;;;;;;4229630;28;20445;-80
2023/10/18 01:52:54;;;;;;;15.27;9.07;;;4.00;99.90;;;;;;4229523;28;20492;-81
2023/10/18 01:54:56;;;;;;;17.17;9.13;;;3.70;99.90;;;;;;4225282;28;20455;-81
2023/10/18 01:57:00;;;;;;;18.27;10.00;;;3.70;99.90;;;;;;4226877;28;20530;-81
2023/10/18 01:59:07;;;;;;;15.40;8.97;;;3.70;99.90;;;;;;4227149;28;20455;-81
2023/10/18 02:01:16;;;;;;;18.00;9.53;;;3.70;99.90;;;;;;4225839;28;20480;-82
2023/10/18 02:03:19;;;;;;;18.57;9.27;;;3.70;99.90;;;;;;4224161;28;20490;-78
2023/10/18 02:05:21;;;;;;;16.90;8.50;;;3.90;99.90;;;;;;4229414;28;20450;-80
2023/10/18 02:07:27;;;;;;;15.70;8.47;;;3.60;99.90;;;;;;4235849;28;21077;-81
2023/10/18 02:09:35;;;;;;;16.67;8.97;;;3.60;99.90;;;;;;4231297;28;20557;-82
2023/10/18 02:11:37;;;;;;;17.37;9.73;;;3.60;99.90;;;;;;4229220;28;20469;-81
2023/10/18 02:13:41;;;;;;;18.63;9.87;;;3.60;99.90;;;;;;4235462;28;20461;-82
2023/10/18 02:15:45;;;;;;;14.57;8.43;;;3.50;99.90;;;;;;4236878;28;20453;-80
2023/10/18 02:17:53;;;;;;;15.50;8.90;;;3.50;99.90;;;;;;4243187;27;20459;-79
2023/10/18 02:19:58;;;;;;;15.70;8.60;;;3.50;99.90;;;;;;4236871;27;20486;-82
2023/10/18 02:22:00;;;;;;;15.60;9.03;;;3.60;99.90;;;;;;4233706;28;20478;-78
2023/10/18 02:24:02;;;;;;;14.67;8.70;;;3.40;99.90;;;;;;4233173;28;20458;-79
2023/10/18 02:26:09;;;;;;;14.20;8.03;;;3.40;99.90;;;;;;4233083;27;20453;-79
2023/10/18 02:28:22;;;;;;;16.60;8.90;;;3.40;99.90;;;;;;4227778;28;20458;-81
2023/10/18 02:30:24;;;;;;;13.00;7.67;;;3.40;99.90;;;;;;4226515;28;20512;-81
2023/10/18 02:32:32;;;;;;;14.23;8.13;;;3.30;99.90;;;;;;4230108;28;20926;-81
2023/10/18 02:34:34;;;;;;;14.97;8.50;;;3.30;99.90;;;;;;4230046;28;21232;-81
2023/10/18 02:36:40;;;;;;;17.37;8.97;;;3.30;99.90;;;;;;4233013;27;20450;-82
2023/10/18 02:38:42;;;;;;;15.13;9.17;;;3.30;99.90;;;;;;4231001;27;20517;-80
2023/10/18 02:40:44;;;;;;;17.63;8.67;;;3.20;99.90;;;;;;4228372;28;20847;-81
2023/10/18 02:42:46;;;;;;;17.27;9.50;;;4.30;99.90;;;;;;4231691;28;20474;-80
2023/10/18 02:44:48;;;;;;;19.23;9.67;;;3.40;99.90;;;;;;4230946;27;20454;-81
2023/10/18 02:46:54;;;;;;;15.73;8.53;;;3.20;99.90;;;;;;4228571;28;20470;-82
2023/10/18 02:48:57;;;;;;;17.93;8.43;;;3.30;99.90;;;;;;4229516;28;20434;-80
2023/10/18 02:51:02;;;;;;;15.33;8.90;;;3.20;99.90;;;;;;4230267;27;20945;-80
2023/10/18 02:53:05;;;;;;;19.63;10.33;;;3.20;99.90;;;;;;4230336;27;20527;-81
2023/10/18 02:55:18;;;;;;;16.70;10.00;;;3.10;99.90;;;;;;4232004;27;20461;-80
2023/10/18 02:57:20;;;;;;;20.03;9.43;;;3.10;99.90;;;;;;4226627;28;20464;-81
2023/10/18 02:59:24;;;;;;;18.07;9.53;;;3.10;99.90;;;;;;4228390;27;20474;-81
2023/10/18 03:01:28;;;;;;;17.03;9.57;;;3.50;99.90;;;;;;4229437;28;20483;-82
2023/10/18 03:03:30;;;;;;;20.47;10.13;;;3.80;99.90;;;;;;4228853;27;20475;-81
2023/10/18 03:05:40;;;;;;;17.20;9.57;;;3.10;99.90;;;;;;4228438;27;20540;-82
2023/10/18 03:07:42;;;;;;;21.03;10.23;;;3.40;99.90;;;;;;4229448;27;20449;-81
2023/10/18 03:09:49;;;;;;;16.57;9.23;;;3.10;99.90;;;;;;4228238;27;20530;-81
2023/10/18 03:11:53;;;;;;;16.70;9.53;;;3.10;99.90;;;;;;4228222;27;20474;-82
2023/10/18 03:13:57;;;;;;;15.33;8.37;;;3.40;99.90;;;;;;4225105;27;20441;-82
2023/10/18 03:16:06;;;;;;;17.73;9.40;;;3.00;99.90;;;;;;4227644;27;20541;-80
2023/10/18 03:18:15;;;;;;;16.60;9.00;;;3.00;99.90;;;;;;4228510;28;20562;-81
2023/10/18 03:20:20;;;;;;;17.47;8.43;;;3.00;99.90;;;;;;4228007;27;20446;-81
2023/10/18 03:22:26;;;;;;;19.40;9.67;;;3.00;99.90;;;;;;4227633;27;21130;-82
2023/10/18 03:24:28;;;;;;;18.67;8.87;;;3.00;99.90;;;;;;4230688;28;20449;-81
2023/10/18 03:26:35;;;;;;;16.97;8.80;;;2.90;99.90;;;;;;4232926;28;20462;-80
2023/10/18 03:28:40;;;;;;;16.67;9.70;;;2.90;99.90;;;;;;4237575;27;20446;-81
2023/10/18 03:30:44;;;;;;;16.00;8.33;;;2.90;99.90;;;;;;4229958;27;20548;-78
2023/10/18 03:32:49;;;;;;;18.30;9.60;;;2.90;99.90;;;;;;4230392;27;20468;-79
2023/10/18 03:34:53;;;;;;;17.83;8.93;;;2.90;99.90;;;;;;4229033;27;20438;-79
2023/10/18 03:36:55;;;;;;;15.97;8.87;;;2.90;99.90;;;;;;4228040;27;20519;-80
2023/10/18 03:39:00;;;;;;;15.77;8.47;;;2.80;99.90;;;;;;4230261;28;20461;-79
2023/10/18 03:41:07;;;;;;;18.40;9.17;;;2.80;99.90;;;;;;4231845;27;21228;-79
2023/10/18 03:43:09;;;;;;;16.00;8.67;;;2.80;99.90;;;;;;4227431;28;20469;-81
2023/10/18 03:45:11;;;;;;;15.17;8.77;;;2.80;99.90;;;;;;4227317;28;20439;-80
2023/10/18 03:47:13;;;;;;;15.40;8.87;;;2.30;99.90;;;;;;4228078;28;20537;-81
2023/10/18 03:49:22;;;;;;;14.93;8.60;;;3.70;99.90;;;;;;4227201;28;20439;-80
2023/10/18 03:51:24;;;;;;;16.00;8.80;;;2.80;99.90;;;;;;4229614;28;20837;-80
2023/10/18 03:53:27;;;;;;;16.97;9.57;;;2.70;99.90;;;;;;4232730;27;20464;-81
2023/10/18 03:55:37;;;;;;;18.30;9.43;;;2.70;99.90;;;;;;4230055;27;20526;-81
2023/10/18 03:57:39;;;;;;;16.37;9.23;;;2.70;99.90;;;;;;4226908;28;20445;-79
2023/10/18 03:59:41;;;;;;;18.13;9.03;;;2.70;99.90;;;;;;4229645;27;20435;-80
2023/10/18 04:02:04;;;;;;;15.30;8.20;;;2.70;99.90;;;;;;4229788;27;20830;-81
2023/10/18 04:04:07;;;;;;;18.90;9.90;;;2.70;99.90;;;;;;4231252;27;20450;-81
2023/10/18 04:06:21;;;;;;;20.63;9.33;;;2.70;99.90;;;;;;4228566;27;20847;-81
2023/10/18 04:08:23;;;;;;;16.13;8.53;;;2.70;99.90;;;;;;4231177;27;20464;-80
2023/10/18 04:10:26;;;;;;;14.17;9.17;;;2.70;99.90;;;;;;4230499;27;20449;-79
2023/10/18 04:12:29;;;;;;;16.03;8.93;;;2.70;99.90;;;;;;4224081;28;21057;-77
2023/10/18 04:14:33;;;;;;;15.93;8.33;;;2.60;99.90;;;;;;4224531;28;20450;-78
2023/10/18 04:16:35;;;;;;;17.17;8.70;;;2.60;99.90;;;;;;4227991;28;20446;-81
2023/10/18 04:18:37;;;;;;;14.97;8.77;;;2.60;99.90;;;;;;4232217;28;20465;-80
2023/10/18 04:20:44;;;;;;;16.57;8.60;;;2.60;99.90;;;;;;4228614;28;20771;-80
2023/10/18 04:22:46;;;;;;;15.00;8.30;;;2.60;99.90;;;;;;4226946;27;20482;-79
2023/10/18 04:24:52;;;;;;;17.80;8.97;;;2.50;99.90;;;;;;4229027;27;20459;-80
2023/10/18 04:26:56;;;;;;;16.03;8.10;;;3.00;99.90;;;;;;4228861;28;20989;-79
2023/10/18 04:29:01;;;;;;;15.20;8.00;;;2.50;99.90;;;;;;4227329;27;20455;-79
2023/10/18 04:31:04;;;;;;;15.97;8.80;;;2.50;99.90;;;;;;4231322;28;20513;-79
2023/10/18 04:33:21;;;;;;;14.30;7.83;;;2.70;99.90;;;;;;4228898;28;20446;-81
2023/10/18 04:35:29;;;;;;;16.00;8.77;;;2.40;99.90;;;;;;4232430;28;20481;-81
2023/10/18 04:37:32;;;;;;;14.37;7.73;;;2.40;99.90;;;;;;4230424;28;20473;-81
2023/10/18 04:39:35;;;;;;;14.07;8.37;;;1.80;99.90;;;;;;4228509;27;20857;-81
2023/10/18 04:41:37;;;;;;;17.40;8.93;;;2.40;99.90;;;;;;4225302;28;20463;-80
2023/10/18 04:43:38;;;;;;;15.53;8.40;;;3.00;99.90;;;;;;4226212;28;20470;-79
2023/10/18 04:45:44;;;;;;;15.40;8.23;;;2.40;99.90;;;;;;4226129;27;20456;-80
2023/10/18 04:47:49;;;;;;;19.33;9.83;;;2.30;99.90;;;;;;4233440;28;20529;-79
2023/10/18 04:50:00;;;;;;;20.77;10.03;;;3.20;99.90;;;;;;4230663;28;20997;-81
2023/10/18 04:52:04;;;;;;;15.30;8.50;;;2.30;99.90;;;;;;4233610;27;20553;-81
2023/10/18 04:54:08;;;;;;;15.93;8.43;;;2.30;99.90;;;;;;4224896;28;20445;-79
2023/10/18 04:56:10;;;;;;;16.23;8.63;;;2.30;99.90;;;;;;4228524;28;20959;-81
2023/10/18 04:58:11;;;;;;;15.53;8.30;;;2.30;99.90;;;;;;4231520;27;20482;-79
2023/10/18 05:00:35;;;;;;;16.77;8.47;;;2.30;99.90;;;;;;4226076;28;20511;-79
2023/10/18 05:02:38;;;;;;;15.70;8.03;;;2.30;99.90;;;;;;4230416;28;20489;-81
2023/10/18 05:04:40;;;;;;;15.43;7.63;;;3.50;99.90;;;;;;4248286;27;20462;-79
2023/10/18 05:06:42;;;;;;;17.97;8.60;;;2.20;99.90;;;;;;4230064;28;20443;-80
2023/10/18 05:08:48;;;;;;;13.27;7.40;;;2.20;99.90;;;;;;4232392;27;20506;-79
2023/10/18 05:10:52;;;;;;;16.37;7.97;;;2.20;99.90;;;;;;4233304;28;20472;-80
2023/10/18 05:13:01;;;;;;;13.80;7.57;;;2.10;99.90;;;;;;4232115;28;20432;-80
2023/10/18 05:15:09;;;;;;;14.00;7.67;;;2.10;99.90;;;;;;4230737;28;20982;-81
2023/10/18 05:17:17;;;;;;;19.40;9.47;;;2.10;99.90;;;;;;4234495;28;20461;-80
2023/10/18 05:19:28;;;;;;;16.13;8.10;;;2.10;99.90;;;;;;4226540;28;20443;-81
2023/10/18 05:21:31;;;;;;;13.97;8.03;;;2.00;99.90;;;;;;4229149;28;20969;-81
2023/10/18 05:23:34;;;;;;;15.40;8.23;;;2.00;99.90;;;;;;4229844;28;20481;-80
2023/10/18 05:25:45;;;;;;;17.57;8.70;;;2.90;99.90;;;;;;4230470;28;20450;-80
2023/10/18 05:27:59;;;;;;;16.73;8.50;;;2.00;99.90;;;;;;4229640;28;20437;-82
2023/10/18 05:30:08;;;;;;;15.10;8.60;;;2.80;99.90;;;;;;4224444;28;21155;-81
2023/10/18 05:32:13;;;;;;;14.80;8.40;;;2.00;99.90;;;;;;4224891;28;20475;-79
2023/10/18 05:34:22;;;;;;;15.60;8.50;;;2.00;99.90;;;;;;4229008;28;20442;-81
2023/10/18 05:36:34;;;;;;;17.43;9.23;;;2.00;99.90;;;;;;4222934;28;21059;-79
2023/10/18 05:38:48;;;;;;;22.23;10.23;;;2.20;99.90;;;;;;4226381;28;20459;-81
2023/10/18 05:40:56;;;;;;;15.23;8.37;;;2.00;99.90;;;;;;4231363;28;20532;-81
2023/10/18 05:43:00;;;;;;;16.43;8.90;;;1.90;99.90;;;;;;4226896;28;20870;-81
2023/10/18 05:45:03;;;;;;;15.70;8.60;;;2.00;99.90;;;;;;4226505;28;20541;-81
2023/10/18 05:47:06;;;;;;;18.23;8.83;;;1.90;99.90;;;;;;4223905;28;20821;-80
2023/10/18 05:49:15;;;;;;;14.03;8.07;;;2.00;99.90;;;;;;4224580;28;20815;-80
2023/10/18 05:51:26;;;;;;;16.40;8.30;;;2.00;99.90;;;;;;4221326;28;20470;-81
2023/10/18 05:53:30;;;;;;;16.37;7.93;;;1.90;99.90;;;;;;4227360;28;20441;-79
2023/10/18 05:55:32;;;;;;;16.23;8.40;;;1.90;99.90;;;;;;4229708;28;20825;-80
2023/10/18 05:57:35;;;;;;;20.47;9.73;;;2.00;99.90;;;;;;4233869;27;21022;-82
2023/10/18 05:59:37;;;;;;;18.63;9.77;;;2.30;99.90;;;;;;4226852;28;20504;-80
2023/10/18 06:01:38;;;;;;;19.33;10.40;;;2.00;99.90;;;;;;4229824;27;20564;-81
2023/10/18 06:03:41;;;;;;;19.63;10.17;;;2.00;99.90;;;;;;4229333;27;20504;-81
2023/10/18 06:05:44;;;;;;;19.00;9.83;;;2.10;99.90;;;;;;4224184;28;20457;-81
2023/10/18 06:07:47;;;;;;;18.93;9.07;;;2.00;99.90;;;;;;4233031;27;20453;-81
2023/10/18 06:09:55;;;;;;;18.17;9.47;;;2.10;99.90;;;;;;4228997;28;20474;-81
2023/10/18 06:11:57;;;;;;;17.27;9.07;;;2.00;99.90;;;;;;4234154;27;20470;-79
2023/10/18 06:13:58;;;;;;;16.70;8.83;;;2.00;99.90;;;;;;4237022;28;20461;-80
2023/10/18 06:16:18;;;;;;;15.93;8.67;;;2.10;99.90;;;;;;4234737;28;20446;-79
2023/10/18 06:18:26;;;;;;;17.43;8.73;;;2.10;99.90;;;;;;4235093;28;20469;-81
2023/10/18 06:20:28;;;;;;;17.80;9.30;;;2.90;99.90;;;;;;4232152;28;20445;-81
2023/10/18 06:22:29;;;;;;;16.93;8.50;;;2.70;99.90;;;;;;4230460;28;20462;-81
2023/10/18 06:24:33;;;;;;;22.70;10.20;;;2.10;99.90;;;;;;4227114;28;20554;-81
2023/10/18 06:26:36;;;;;;;18.17;9.43;;;2.10;99.90;;;;;;4234003;28;20207;-80
2023/10/18 06:28:38;;;;;;;19.93;9.93;;;2.10;99.90;;;;;;4233531;28;20462;-79
2023/10/18 06:30:40;;;;;;;18.17;9.30;;;2.10;99.90;;;;;;4233734;28;20451;-80
2023/10/18 06:32:43;;;;;;;19.10;9.77;;;2.20;99.90;;;;;;4244293;27;20470;-80
2023/10/18 06:34:45;;;;;;;17.83;9.23;;;2.60;99.90;;;;;;4242382;28;20443;-82
2023/10/18 06:36:48;;;;;;;27.23;11.00;;;2.20;99.90;;;;;;4239099;27;20476;-81
2023/10/18 06:38:50;;;;;;;18.90;10.10;;;3.00;99.90;;;;;;4231111;28;20446;-80
2023/10/18 06:41:00;;;;;;;23.13;10.83;;;2.30;99.90;;;;;;4239107;27;20565;-82
2023/10/18 06:43:03;;;;;;;23.70;10.70;;;2.30;99.90;;;;;;4231395;28;20466;-81
2023/10/18 06:45:15;;;;;;;21.73;10.07;;;2.30;99.90;;;;;;4240014;27;20864;-81
2023/10/18 06:47:17;;;;;;;20.83;9.93;;;2.30;99.90;;;;;;4240406;28;20430;-82
2023/10/18 06:49:19;;;;;;;18.93;9.73;;;2.40;99.90;;;;;;4234724;28;20450;-82
2023/10/18 06:51:30;;;;;;;20.47;10.20;;;2.30;99.90;;;;;;4229858;28;20899;-81
2023/10/18 06:53:32;;;;;;;21.57;10.17;;;2.40;99.90;;;;;;4226834;28;20804;-81
2023/10/18 06:55:42;;;;;;;19.97;10.67;;;2.40;99.90;;;;;;4233642;28;20457;-82
2023/10/18 06:57:49;;;;;;;20.40;11.13;;;2.70;99.90;;;;;;4230252;28;20438;-80
2023/10/18 06:59:55;;;;;;;20.47;10.80;;;3.20;99.90;;;;;;4232421;27;20729;-82
2023/10/18 07:01:58;;;;;;;23.23;10.47;;;2.50;99.90;;;;;;4227093;28;20520;-81
2023/10/18 07:04:00;;;;;;;21.00;10.57;;;2.60;99.90;;;;;;4228326;28;20486;-80
2023/10/18 07:06:04;;;;;;;22.53;10.60;;;2.60;99.90;;;;;;4227980;28;20462;-80
2023/10/18 07:08:18;;;;;;;18.83;9.60;;;2.50;99.90;;;;;;4231324;27;20486;-82
2023/10/18 07:10:40;;;;;;;20.17;10.33;;;2.60;99.90;;;;;;4229323;28;20485;-82
2023/10/18 07:12:47;;;;;;;25.67;10.93;;;2.60;99.90;;;;;;4239218;27;20462;-81
2023/10/18 07:14:49;;;;;;;20.73;10.53;;;2.60;99.90;;;;;;4232382;27;20526;-80
2023/10/18 07:16:55;;;;;;;18.40;10.00;;;2.70;99.90;;;;;;4229608;27;20455;-82
2023/10/18 07:19:06;;;;;;;20.13;10.03;;;2.70;99.90;;;;;;4234348;27;20463;-80
2023/10/18 07:21:09;;;;;;;22.37;11.40;;;2.70;99.90;;;;;;4224787;28;20429;-81
2023/10/18 07:23:20;;;;;;;21.60;10.93;;;2.70;99.90;;;;;;4228670;27;20450;-80
2023/10/18 07:25:27;;;;;;;20.23;11.10;;;2.80;99.90;;;;;;4234322;28;20453;-81
2023/10/18 07:27:30;;;;;;;19.20;10.40;;;2.80;99.90;;;;;;4230451;28;20451;-81
2023/10/18 07:29:36;;;;;;;26.63;11.07;;;2.80;99.90;;;;;;4235776;28;20546;-82
2023/10/18 07:31:39;;;;;;;25.73;11.33;;;2.90;99.90;;;;;;4238621;28;20539;-82
2023/10/18 07:33:42;;;;;;;22.27;10.60;;;2.90;99.90;;;;;;4230031;27;20482;-82
2023/10/18 07:35:45;;;;;;;22.63;10.93;;;3.00;99.90;;;;;;4233518;27;20686;-82
2023/10/18 07:37:47;;;;;;;23.47;10.80;;;3.00;99.90;;;;;;4226971;28;20517;-81
2023/10/18 07:39:57;;;;;;;20.47;10.33;;;3.10;99.90;;;;;;4233517;28;20450;-80
2023/10/18 07:42:05;;;;;;;21.50;11.37;;;3.30;99.90;;;;;;4232306;27;20967;-81
2023/10/18 07:44:07;;;;;;;23.63;10.37;;;3.70;99.90;;;;;;4227976;28;20486;-82
2023/10/18 07:46:16;;;;;;;22.40;11.33;;;3.20;99.90;;;;;;4229525;27;20469;-82
2023/10/18 07:48:19;;;;;;;24.00;11.63;;;3.20;99.90;;;;;;4229062;27;20442;-81
2023/10/18 07:50:43;;;;;;;19.97;11.00;;;3.30;99.90;;;;;;4228943;27;20520;-81
2023/10/18 07:52:45;;;;;;;23.53;11.50;;;3.30;99.90;;;;;;4232366;28;20570;-82
2023/10/18 07:54:48;;;;;;;19.87;10.43;;;3.40;99.90;;;;;;4227748;28;20552;-82
2023/10/18 07:56:50;;;;;;;19.57;9.77;;;3.80;99.90;;;;;;4236578;27;20542;-81
2023/10/18 07:58:53;;;;;;;18.30;9.90;;;3.80;99.90;;;;;;4234783;27;20853;-81
2023/10/18 08:01:09;;;;;;;21.17;10.80;;;3.50;99.90;;;;;;4230400;28;20465;-82
2023/10/18 08:03:12;;;;;;;20.03;9.80;;;3.60;99.90;;;;;;4230542;28;20437;-82
2023/10/18 08:05:18;;;;;;;16.90;9.07;;;3.60;99.90;;;;;;4228406;28;20580;-82
2023/10/18 08:07:22;;;;;;;18.83;9.83;;;3.70;99.90;;;;;;4234615;27;20526;-81
2023/10/18 08:09:28;;;;;;;17.57;9.00;;;3.70;99.90;;;;;;4230103;27;20443;-80
2023/10/18 08:11:32;;;;;;;21.60;10.37;;;3.80;99.90;;;;;;4232121;27;20470;-81
2023/10/18 08:13:43;;;;;;;20.93;11.30;;;4.30;99.90;;;;;;4236034;27;20458;-82
2023/10/18 08:15:50;;;;;;;22.33;10.40;;;3.90;99.90;;;;;;4230010;28;20452;-81
2023/10/18 08:17:58;;;;;;;18.50;9.60;;;3.90;99.90;;;;;;4232692;28;21036;-81
2023/10/18 08:22:23;;;;;;;18.77;10.30;;;4.10;99.90;;;;;;4229386;28;20479;-82
2023/10/18 08:24:26;;;;;;;21.00;10.70;;;4.10;99.90;;;;;;4238569;27;20563;-81
2023/10/18 08:26:29;;;;;;;24.60;11.63;;;4.50;99.90;;;;;;4230299;28;20512;-80
2023/10/18 08:28:38;;;;;;;20.20;10.43;;;4.30;99.90;;;;;;4232339;27;22117;-80
2023/10/18 08:31:03;;;;;;;27.37;11.70;;;4.40;99.90;;;;;;4226803;28;20484;-79
2023/10/18 08:33:03;;;;;;;20.23;10.10;;;4.40;99.90;;;;;;4221811;27;20531;-79
2023/10/18 08:35:08;;;;;;;20.43;9.87;;;4.60;99.90;;;;;;4221577;28;20441;-79
2023/10/18 08:37:13;;;;;;;18.93;9.87;;;4.60;99.90;;;;;;4224409;27;20491;-80
2023/10/18 08:39:16;;;;;;;19.93;10.23;;;4.60;99.90;;;;;;4223525;27;20464;-79
2023/10/18 08:41:21;;;;;;;18.53;9.47;;;4.70;99.90;;;;;;4225135;28;21020;-80
2023/10/18 08:43:31;;;;;;;18.03;9.53;;;4.80;99.90;;;;;;4220724;28;20502;-79
2023/10/18 08:45:36;;;;;;;19.50;9.03;;;4.80;99.90;;;;;;4224183;28;21045;-79
2023/10/18 08:47:39;;;;;;;18.03;9.20;;;4.90;99.90;;;;;;4226508;28;20468;-80
2023/10/18 08:49:51;;;;;;;15.33;8.63;;;5.00;99.90;;;;;;4227410;28;20455;-79
2023/10/18 08:52:02;;;;;;;18.30;9.30;;;5.10;99.90;;;;;;4225208;27;20475;-80
2023/10/18 08:54:17;;;;;;;18.57;10.80;;;5.20;99.90;;;;;;4231647;28;20441;-80
2023/10/18 08:56:25;;;;;;;20.40;10.03;;;5.20;99.90;;;;;;4229800;28;21008;-80
2023/10/18 08:58:28;;;;;;;23.30;11.27;;;5.30;99.90;;;;;;4230764;27;20460;-80
2023/10/18 09:02:51;;;;;;;18.17;9.77;;;5.50;99.90;;;;;;4229402;27;20488;-80
2023/10/18 09:04:54;;;;;;;16.47;9.67;;;5.50;99.90;;;;;;4232037;27;20481;-80
2023/10/18 09:06:57;;;;;;;20.90;10.13;;;5.70;99.90;;;;;;4231984;28;20445;-80
2023/10/18 09:09:05;;;;;;;17.43;9.43;;;5.70;99.90;;;;;;4236114;28;20458;-80
2023/10/18 09:11:20;;;;;;;19.33;10.10;;;5.80;99.90;;;;;;4231483;27;20501;-81
2023/10/18 09:13:33;;;;;;;22.10;9.33;;;5.90;99.90;;;;;;4232980;27;20530;-80
2023/10/18 09:15:35;;;;;;;15.73;9.00;;;6.20;99.90;;;;;;4228795;28;20434;-80
2023/10/18 09:17:37;;;;;;;15.20;8.60;;;6.10;99.90;;;;;;4230603;28;20623;-80
2023/10/18 09:19:39;;;;;;;17.00;9.53;;;6.20;99.90;;;;;;4224535;28;20448;-80
2023/10/18 09:21:46;;;;;;;16.40;9.10;;;6.30;99.90;;;;;;4230450;28;20465;-80
2023/10/18 09:23:59;;;;;;;16.70;9.10;;;6.30;99.90;;;;;;4224959;28;20876;-80
2023/10/18 09:26:10;;;;;;;15.33;7.37;;;6.50;99.90;;;;;;4230153;28;20528;-79
2023/10/18 09:28:12;;;;;;;15.23;8.30;;;6.60;99.90;;;;;;4232527;28;20841;-80
2023/10/18 09:30:18;;;;;;;18.03;8.73;;;6.60;99.90;;;;;;4229110;27;20446;-80
2023/10/18 09:32:32;;;;;;;16.77;8.63;;;6.70;99.90;;;;;;4236177;27;20245;-79
2023/10/18 09:34:34;;;;;;;14.90;8.63;;;6.80;99.90;;;;;;4237125;27;20240;-80
2023/10/18 09:36:39;;;;;;;14.97;8.67;;;6.90;99.90;;;;;;4236344;27;20458;-80
2023/10/18 09:38:42;;;;;;;15.23;8.30;;;7.00;99.90;;;;;;4227469;28;20453;-77
2023/10/18 09:40:44;;;;;;;14.17;8.00;;;7.10;99.90;;;;;;4234693;27;20233;-79
2023/10/18 09:42:46;;;;;;;13.07;7.70;;;7.20;99.90;;;;;;4234936;27;20593;-78
2023/10/18 09:44:48;;;;;;;15.40;7.73;;;7.30;99.90;;;;;;4232183;27;20250;-79
2023/10/18 09:46:54;;;;;;;17.57;8.20;;;7.30;99.90;;;;;;4229342;27;20211;-80
2023/10/18 09:48:58;;;;;;;12.50;7.77;;;7.50;99.90;;;;;;4230658;27;20446;-80
2023/10/18 09:51:06;;;;;;;12.87;7.73;;;7.50;99.90;;;;;;4233024;27;20608;-80
2023/10/18 09:53:12;;;;;;;12.97;7.70;;;7.60;99.90;;;;;;4233810;27;20213;-80
2023/10/18 09:55:20;;;;;;;14.00;7.97;;;7.80;99.90;;;;;;4232284;27;20274;-80
2023/10/18 09:57:24;;;;;;;13.47;7.57;;;7.90;99.90;;;;;;4228874;27;20224;-78
2023/10/18 09:59:27;;;;;;;12.97;7.30;;;8.00;99.90;;;;;;4234445;27;20258;-80
2023/10/18 10:01:29;;;;;;;13.80;7.67;;;8.10;99.90;;;;;;4227006;27;20259;-78
2023/10/18 10:03:35;;;;;;;12.17;6.57;;;8.20;99.90;;;;;;4234446;27;20216;-80
2023/10/18 10:05:42;;;;;;;15.10;7.83;;;8.30;99.90;;;;;;4227290;27;20234;-77
2023/10/18 10:07:46;;;;;;;12.07;6.87;;;8.40;99.90;;;;;;4234144;27;20961;-78
2023/10/18 10:09:48;;;;;;;12.57;7.57;;;8.50;99.90;;;;;;4228512;27;20288;-79
2023/10/18 10:11:50;;;;;;;14.57;7.77;;;8.60;99.90;;;;;;4230239;28;20223;-80
2023/10/18 10:13:52;;;;;;;16.63;7.47;;;8.80;99.90;;;;;;4234819;27;20209;-81
2023/10/18 10:15:58;;;;;;;10.50;6.40;;;8.90;99.90;;;;;;4233484;27;20204;-81
2023/10/18 10:18:00;;;;;;;11.03;6.73;;;9.00;99.90;;;;;;4233869;27;20218;-78
2023/10/18 10:20:11;;;;;;;12.00;6.83;;;9.10;99.90;;;;;;4232477;27;20674;-80
2023/10/18 10:22:15;;;;;;;12.60;6.50;;;9.20;99.90;;;;;;4233020;27;20613;-80
2023/10/18 10:24:31;;;;;;;9.93;6.00;;;9.30;99.90;;;;;;4233171;27;20215;-81
2023/10/18 10:26:35;;;;;;;8.87;5.80;;;9.40;99.90;;;;;;4233271;27;20236;-80
2023/10/18 10:31:06;;;;;;;11.83;6.47;;;9.70;99.90;;;;;;4231281;27;20215;-80
2023/10/18 10:33:12;;;;;;;14.90;6.23;;;9.80;99.90;;;;;;4227233;27;20726;-80
2023/10/18 10:35:17;;;;;;;10.57;5.90;;;9.90;99.90;;;;;;4228725;27;20214;-79
2023/10/18 10:37:19;;;;;;;10.90;6.50;;;10.10;99.90;;;;;;4222233;27;20215;-80
2023/10/18 10:39:24;;;;;;;10.47;6.47;;;10.20;99.90;;;;;;4221358;27;20660;-79
2023/10/18 10:41:30;;;;;;;9.13;6.03;;;10.30;99.90;;;;;;4223134;28;20219;-79
2023/10/18 10:44:21;;;;;;;10.83;6.07;;;10.40;99.90;;;;;;4224394;27;20722;-78
2023/10/18 10:46:35;;;;;;;10.83;6.20;;;10.60;99.90;;;;;;4224592;27;20215;-77
2023/10/18 10:48:45;;;;;;;9.77;5.80;;;10.70;99.90;;;;;;4225681;27;20239;-78
2023/10/18 10:50:52;;;;;;;10.07;5.63;;;10.80;99.90;;;;;;4225284;28;20633;-78
2023/10/18 10:52:54;;;;;;;10.77;6.47;;;10.90;99.90;;;;;;4225926;27;20227;-78
2023/10/18 10:55:16;;;;;;;10.30;5.60;;;11.10;99.90;;;;;;4222584;28;20255;-77
2023/10/18 10:57:19;;;;;;;11.43;5.60;;;11.20;99.90;;;;;;4222010;28;20212;-77
2023/10/18 10:59:22;;;;;;;9.67;6.00;;;11.30;99.90;;;;;;4220476;27;20224;-77
2023/10/18 11:01:57;;;;;;;8.43;5.47;;;11.40;99.90;;;;;;4221214;27;20220;-77